KICL/ICL METAR and TAF weather

Enter ICAO airport designator
Station Type Date Time Source
KICL METAR 2019/10/15 03:55 UTC NOAA

KICL 150355Z AUTO 21003KT 10SM CLR 10/09 A2986 RMK AO2


Station Type Date Time Source
KICL Decoded METAR 2019/10/15 03:55 UTC NOAA

Clarinda, IA, United States (KICL) 40-43N 095-02W
Oct 14, 2019 - 11:55 PM EDT / 2019.10.15 0355 UTC
Wind: from the SSW (210 degrees) at 3 MPH (3 KT):0
Visibility: 10 mile(s):0
Sky conditions: clear
Temperature: 50 F (10 C)
Dew Point: 48 F (9 C)
Relative Humidity: 93%
Pressure (altimeter): 29.86 in. Hg (1011 hPa)
ob: KICL 150355Z AUTO 21003KT 10SM CLR 10/09 A2986 RMK AO2
cycle: 4

Station Type Date Time Source
KICL TAF UTC NOAA

Error!

Example: see airport list